Strona główna
METAR-TAF:

METAR-TAF

Lotnisko :

Chadron, Nebraska, Stany Zjednoczone

Szerokość geograficzna: 42-50-15N, Długość geograficzna: 103-05-43W, wysokość: 1005 m

Aktualna obserwacja pogody

Raport powstał 23 minut temu, godzina 05:53 UTC
Wiatr 9 kt od południowy zachód
Temperatura -1°C
Wilgotność 80%
Ciśnienie 1022 hPa
Widzialność: 16.1 km
bezchmurnie

METAR: KCDR 280553Z AUTO 23009KT 10SM CLR M01/M04 A3018 RMK AO2 SLP259 T10111044 10039 21022 50004

czas: 23:16 (06:16 UTC)

Prognoza

Raport powstał 56 minut temu, godzina 05:20 UTC
Prognoza ważna od 28 godzina 06 UTC do 29 godzina 06 UTC
Wiatr 10 kt od zachód
Widzialność: 10 km
bezchmurnie
Od 28 godzina 1800 UTC
Wiatr 10 kt od zachodnio-północny zachód
Widzialność: 10 km
bezchmurnie
Od 29 godzina 0000 UTC
Wiatr 6 kt od zachód
Widzialność: 10 km
Rozproszone chmury na wysokości 25000 ft

TAF: KCDR 280520Z 2806/2906 26010KT P6SM SKC FM281800 29010KT P6SM SKC FM290000 26006KT P6SM SCT250

Obserwacja i prognoza pogody dla ponad 4000 lotnisk (raport METAR i TAF).

Dostępne stacje oznaczono żółtymi i czerwonymi punktami na mapie.

Najedź kursorem aby zobaczyć nazwę stacji.

Kliknij aby zobaczyć obserwacje i prognozy pogody.

Aby zmienić mapę: kliknij na zielony przycisk z czarnym krzyżykiem, aby powiększyć; na zielony przycisk z myślnikiem, aby pomniejszyć; na zielone strzałki, aby przejść do map sąsiednich.


METAR-TAF: